sensor_id;sensor_type;location;lat;lon;timestamp;temperature;humidity
9095;DHT22;4583;49.796;9.902;2022-12-07T00:14:24;5.50;99.30
9095;DHT22;4583;49.796;9.902;2022-12-07T00:24:26;5.40;99.40
9095;DHT22;4583;49.796;9.902;2022-12-07T00:34:28;5.30;99.10
9095;DHT22;4583;49.796;9.902;2022-12-07T00:44:30;5.20;99.20
9095;DHT22;4583;49.796;9.902;2022-12-07T01:04:34;5.40;98.70
9095;DHT22;4583;49.796;9.902;2022-12-07T01:24:38;5.50;98.30
9095;DHT22;4583;49.796;9.902;2022-12-07T01:34:39;5.40;98.10
9095;DHT22;4583;49.796;9.902;2022-12-07T02:36:49;5.20;97.80
9095;DHT22;4583;49.796;9.902;2022-12-07T02:47:05;5.20;98.00
9095;DHT22;4583;49.796;9.902;2022-12-07T02:58:14;5.20;97.90
9095;DHT22;4583;49.796;9.902;2022-12-07T03:08:23;5.20;97.80
9095;DHT22;4583;49.796;9.902;2022-12-07T03:18:30;5.20;97.80
9095;DHT22;4583;49.796;9.902;2022-12-07T03:28:35;5.20;97.80
9095;DHT22;4583;49.796;9.902;2022-12-07T03:38:42;5.20;97.80
9095;DHT22;4583;49.796;9.902;2022-12-07T04:08:58;5.40;97.50
9095;DHT22;4583;49.796;9.902;2022-12-07T04:18:59;5.30;97.50
9095;DHT22;4583;49.796;9.902;2022-12-07T04:29:01;5.40;97.50
9095;DHT22;4583;49.796;9.902;2022-12-07T04:39:18;5.30;97.50
9095;DHT22;4583;49.796;9.902;2022-12-07T04:49:20;5.30;97.30
9095;DHT22;4583;49.796;9.902;2022-12-07T04:59:22;5.40;97.40
9095;DHT22;4583;49.796;9.902;2022-12-07T05:09:23;5.50;97.30
9095;DHT22;4583;49.796;9.902;2022-12-07T05:29:28;5.50;96.90
9095;DHT22;4583;49.796;9.902;2022-12-07T05:39:29;5.40;96.70
9095;DHT22;4583;49.796;9.902;2022-12-07T05:49:31;5.40;96.90
9095;DHT22;4583;49.796;9.902;2022-12-07T06:09:35;5.40;97.10
9095;DHT22;4583;49.796;9.902;2022-12-07T06:29:39;5.40;97.40
9095;DHT22;4583;49.796;9.902;2022-12-07T06:59:45;5.50;97.60
9095;DHT22;4583;49.796;9.902;2022-12-07T07:09:47;5.50;97.80
9095;DHT22;4583;49.796;9.902;2022-12-07T07:29:51;5.50;97.90
9095;DHT22;4583;49.796;9.902;2022-12-07T07:39:52;5.50;98.00
9095;DHT22;4583;49.796;9.902;2022-12-07T07:49:54;5.60;98.00
9095;DHT22;4583;49.796;9.902;2022-12-07T07:59:55;5.60;98.00
9095;DHT22;4583;49.796;9.902;2022-12-07T08:09:57;5.70;98.10
9095;DHT22;4583;49.796;9.902;2022-12-07T08:40:07;5.80;98.20
9095;DHT22;4583;49.796;9.902;2022-12-07T08:50:10;5.90;98.10
9095;DHT22;4583;49.796;9.902;2022-12-07T09:00:12;5.90;98.20
9095;DHT22;4583;49.796;9.902;2022-12-07T09:20:16;6.00;98.10
9095;DHT22;4583;49.796;9.902;2022-12-07T09:40:23;6.20;98.30
9095;DHT22;4583;49.796;9.902;2022-12-07T09:50:27;6.20;98.40
9095;DHT22;4583;49.796;9.902;2022-12-07T10:00:29;6.40;98.30
9095;DHT22;4583;49.796;9.902;2022-12-07T10:10:34;6.40;98.00
9095;DHT22;4583;49.796;9.902;2022-12-07T10:20:39;6.30;98.00
9095;DHT22;4583;49.796;9.902;2022-12-07T10:31:02;6.30;98.20
9095;DHT22;4583;49.796;9.902;2022-12-07T10:41:07;6.50;98.10
9095;DHT22;4583;49.796;9.902;2022-12-07T11:12:05;6.80;97.30
9095;DHT22;4583;49.796;9.902;2022-12-07T11:32:35;6.90;97.20
9095;DHT22;4583;49.796;9.902;2022-12-07T11:42:53;7.00;96.80
9095;DHT22;4583;49.796;9.902;2022-12-07T11:53:20;6.90;96.70
9095;DHT22;4583;49.796;9.902;2022-12-07T12:03:30;7.10;96.40
9095;DHT22;4583;49.796;9.902;2022-12-07T12:24:17;7.10;96.20
9095;DHT22;4583;49.796;9.902;2022-12-07T12:35:20;7.20;95.90
9095;DHT22;4583;49.796;9.902;2022-12-07T12:45:17;7.20;95.60
9095;DHT22;4583;49.796;9.902;2022-12-07T12:55:27;7.00;95.50
9095;DHT22;4583;49.796;9.902;2022-12-07T13:05:32;6.90;95.80
9095;DHT22;4583;49.796;9.902;2022-12-07T13:35:54;6.50;97.00
9095;DHT22;4583;49.796;9.902;2022-12-07T13:45:58;7.10;97.20
9095;DHT22;4583;49.796;9.902;2022-12-07T14:06:14;6.90;96.70
9095;DHT22;4583;49.796;9.902;2022-12-07T14:26:29;7.10;96.70
9095;DHT22;4583;49.796;9.902;2022-12-07T14:36:31;6.90;96.40
9095;DHT22;4583;49.796;9.902;2022-12-07T14:46:32;6.70;96.50
9095;DHT22;4583;49.796;9.902;2022-12-07T14:56:34;6.60;96.40
9095;DHT22;4583;49.796;9.902;2022-12-07T15:06:36;6.40;96.60
9095;DHT22;4583;49.796;9.902;2022-12-07T15:16:40;6.40;96.80
9095;DHT22;4583;49.796;9.902;2022-12-07T15:27:02;6.20;96.70
9095;DHT22;4583;49.796;9.902;2022-12-07T15:37:04;6.10;96.80
9095;DHT22;4583;49.796;9.902;2022-12-07T15:57:08;6.10;97.10
9095;DHT22;4583;49.796;9.902;2022-12-07T16:07:10;6.10;97.10
9095;DHT22;4583;49.796;9.902;2022-12-07T16:17:12;5.70;97.10
9095;DHT22;4583;49.796;9.902;2022-12-07T16:37:16;5.40;97.90
9095;DHT22;4583;49.796;9.902;2022-12-07T16:47:18;5.50;98.10
9095;DHT22;4583;49.796;9.902;2022-12-07T17:17:26;5.50;98.40
9095;DHT22;4583;49.796;9.902;2022-12-07T17:27:28;5.40;98.60
9095;DHT22;4583;49.796;9.902;2022-12-07T17:37:31;5.50;98.80
9095;DHT22;4583;49.796;9.902;2022-12-07T17:47:33;5.50;99.00
9095;DHT22;4583;49.796;9.902;2022-12-07T17:57:35;5.60;99.10
9095;DHT22;4583;49.796;9.902;2022-12-07T18:07:36;5.60;99.40
9095;DHT22;4583;49.796;9.902;2022-12-07T18:17:39;5.60;99.50
9095;DHT22;4583;49.796;9.902;2022-12-07T18:27:42;5.60;99.50
9095;DHT22;4583;49.796;9.902;2022-12-07T19:16:06;4.10;99.00
9095;DHT22;4583;49.796;9.902;2022-12-07T19:46:12;5.40;99.70
9095;DHT22;4583;49.796;9.902;2022-12-07T19:56:16;5.40;99.70
9095;DHT22;4583;49.796;9.902;2022-12-07T20:10:07;5.50;99.70
9095;DHT22;4583;49.796;9.902;2022-12-07T20:20:09;5.50;99.60
9095;DHT22;4583;49.796;9.902;2022-12-07T20:30:11;5.60;99.70
9095;DHT22;4583;49.796;9.902;2022-12-07T20:40:13;5.60;99.60
9095;DHT22;4583;49.796;9.902;2022-12-07T21:10:19;5.30;99.60
9095;DHT22;4583;49.796;9.902;2022-12-07T21:20:20;5.30;99.70
9095;DHT22;4583;49.796;9.902;2022-12-07T21:30:22;5.20;99.60
9095;DHT22;4583;49.796;9.902;2022-12-07T21:40:24;5.20;99.80
9095;DHT22;4583;49.796;9.902;2022-12-07T22:10:30;5.10;99.80
9095;DHT22;4583;49.796;9.902;2022-12-07T22:40:37;5.10;99.70
9095;DHT22;4583;49.796;9.902;2022-12-07T23:00:41;5.10;99.70
9095;DHT22;4583;49.796;9.902;2022-12-07T23:10:45;5.20;99.60
9095;DHT22;4583;49.796;9.902;2022-12-07T23:40:51;5.20;99.60
9095;DHT22;4583;49.796;9.902;2022-12-07T23:50:57;5.30;99.60
